sensor_id;sensor_type;location;lat;lon;timestamp;pressure;altitude;pressure_sealevel;temperature;humidity
63493;BME280;49638;47.526;10.028;2022-10-16T00:00:25;91778.81;;;12.01;97.88
63493;BME280;49638;47.526;10.028;2022-10-16T00:03:26;91783.31;;;12.01;97.75
63493;BME280;49638;47.526;10.028;2022-10-16T00:06:27;91770.56;;;11.98;97.57
63493;BME280;49638;47.526;10.028;2022-10-16T00:09:28;91780.19;;;12.04;97.51
63493;BME280;49638;47.526;10.028;2022-10-16T00:12:28;91777.53;;;12.04;97.56
63493;BME280;49638;47.526;10.028;2022-10-16T00:15:29;91781.84;;;12.10;97.57
63493;BME280;49638;47.526;10.028;2022-10-16T00:18:29;91786.63;;;12.13;97.58
63493;BME280;49638;47.526;10.028;2022-10-16T00:21:31;91781.84;;;12.10;97.29
63493;BME280;49638;47.526;10.028;2022-10-16T00:24:31;91775.69;;;12.04;97.32
63493;BME280;49638;47.526;10.028;2022-10-16T00:27:33;91779.13;;;12.05;97.07
63493;BME280;49638;47.526;10.028;2022-10-16T00:30:33;91775.16;;;12.02;96.99
63493;BME280;49638;47.526;10.028;2022-10-16T00:33:34;91785.78;;;12.07;96.76
63493;BME280;49638;47.526;10.028;2022-10-16T00:36:35;91789.69;;;12.00;97.04
63493;BME280;49638;47.526;10.028;2022-10-16T00:39:35;91800.56;;;12.03;97.24
63493;BME280;49638;47.526;10.028;2022-10-16T00:42:35;91787.03;;;12.00;96.99
63493;BME280;49638;47.526;10.028;2022-10-16T00:45:36;91784.91;;;12.02;96.94
63493;BME280;49638;47.526;10.028;2022-10-16T00:48:36;91790.31;;;12.12;96.96
63493;BME280;49638;47.526;10.028;2022-10-16T00:51:45;91782.38;;;12.12;96.86
63493;BME280;49638;47.526;10.028;2022-10-16T00:54:46;91784.22;;;12.12;96.85
63493;BME280;49638;47.526;10.028;2022-10-16T00:57:48;91780.53;;;12.13;96.79
63493;BME280;49638;47.526;10.028;2022-10-16T01:00:48;91786.66;;;12.18;96.73
63493;BME280;49638;47.526;10.028;2022-10-16T01:03:49;91776.03;;;12.13;97.01
63493;BME280;49638;47.526;10.028;2022-10-16T01:07:12;91783.50;;;12.16;97.08
63493;BME280;49638;47.526;10.028;2022-10-16T01:13:21;91799.69;;;12.20;97.03
63493;BME280;49638;47.526;10.028;2022-10-16T01:16:49;91792.53;;;12.20;96.44
63493;BME280;49638;47.526;10.028;2022-10-16T01:26:19;91777.81;;;12.35;95.98
63493;BME280;49638;47.526;10.028;2022-10-16T01:32:53;91790.56;;;12.38;95.62
63493;BME280;49638;47.526;10.028;2022-10-16T01:35:59;91788.44;;;12.40;96.11
63493;BME280;49638;47.526;10.028;2022-10-16T01:39:03;91779.91;;;12.32;96.29
63493;BME280;49638;47.526;10.028;2022-10-16T01:42:10;91795.06;;;12.37;96.52
63493;BME280;49638;47.526;10.028;2022-10-16T01:45:13;91767.63;;;12.21;96.44
63493;BME280;49638;47.526;10.028;2022-10-16T01:48:18;91792.16;;;12.39;96.26
63493;BME280;49638;47.526;10.028;2022-10-16T01:51:19;91787.13;;;12.37;96.30
63493;BME280;49638;47.526;10.028;2022-10-16T01:54:22;91784.16;;;12.34;96.46
63493;BME280;49638;47.526;10.028;2022-10-16T01:57:25;91790.78;;;12.36;96.38
63493;BME280;49638;47.526;10.028;2022-10-16T02:00:29;91788.16;;;12.36;96.40
63493;BME280;49638;47.526;10.028;2022-10-16T02:03:29;91784.69;;;12.36;96.50
63493;BME280;49638;47.526;10.028;2022-10-16T02:06:31;91786.81;;;12.34;96.70
63493;BME280;49638;47.526;10.028;2022-10-16T02:09:33;91776.72;;;12.30;96.59
63493;BME280;49638;47.526;10.028;2022-10-16T02:12:36;91775.38;;;12.28;96.63
63493;BME280;49638;47.526;10.028;2022-10-16T02:15:39;91774.31;;;12.29;96.91
63493;BME280;49638;47.526;10.028;2022-10-16T02:18:41;91787.25;;;12.25;96.95
63493;BME280;49638;47.526;10.028;2022-10-16T02:21:57;91791.47;;;12.21;96.84
63493;BME280;49638;47.526;10.028;2022-10-16T02:25:17;91796.28;;;12.24;97.27
63493;BME280;49638;47.526;10.028;2022-10-16T02:28:28;91792.03;;;12.23;96.88
63493;BME280;49638;47.526;10.028;2022-10-16T02:31:35;91795.50;;;12.29;96.64
63493;BME280;49638;47.526;10.028;2022-10-16T02:34:39;91792.84;;;12.29;96.78
63493;BME280;49638;47.526;10.028;2022-10-16T02:37:41;91799.50;;;12.31;96.64
63493;BME280;49638;47.526;10.028;2022-10-16T02:40:42;91797.66;;;12.32;96.74
63493;BME280;49638;47.526;10.028;2022-10-16T02:43:42;91797.13;;;12.30;96.74
63493;BME280;49638;47.526;10.028;2022-10-16T02:46:43;91802.66;;;12.28;96.37
63493;BME280;49638;47.526;10.028;2022-10-16T02:49:43;91787.22;;;12.20;96.65
63493;BME280;49638;47.526;10.028;2022-10-16T02:52:43;91789.59;;;12.17;96.42
63493;BME280;49638;47.526;10.028;2022-10-16T02:55:44;91793.06;;;12.22;96.41
63493;BME280;49638;47.526;10.028;2022-10-16T02:58:44;91799.91;;;12.18;96.27
63493;BME280;49638;47.526;10.028;2022-10-16T03:01:44;91784.22;;;12.12;96.30
63493;BME280;49638;47.526;10.028;2022-10-16T03:04:45;91785.84;;;12.13;96.07
63493;BME280;49638;47.526;10.028;2022-10-16T03:07:45;91784.50;;;12.15;96.44
63493;BME280;49638;47.526;10.028;2022-10-16T03:10:45;91789.53;;;12.12;96.81
63493;BME280;49638;47.526;10.028;2022-10-16T03:13:46;91778.03;;;12.01;96.80
63493;BME280;49638;47.526;10.028;2022-10-16T03:16:46;91791.28;;;12.01;96.82
63493;BME280;49638;47.526;10.028;2022-10-16T03:19:46;91789.41;;;12.01;96.78
63493;BME280;49638;47.526;10.028;2022-10-16T03:22:46;91789.72;;;12.05;97.00
63493;BME280;49638;47.526;10.028;2022-10-16T03:25:47;91779.88;;;12.00;96.84
63493;BME280;49638;47.526;10.028;2022-10-16T03:28:47;91790.47;;;12.00;96.84
63493;BME280;49638;47.526;10.028;2022-10-16T03:31:47;91796.53;;;11.96;96.87
63493;BME280;49638;47.526;10.028;2022-10-16T03:34:49;91802.94;;;12.00;96.55
63493;BME280;49638;47.526;10.028;2022-10-16T03:37:50;91801.63;;;12.02;96.32
63493;BME280;49638;47.526;10.028;2022-10-16T03:40:50;91793.69;;;12.02;96.32
63493;BME280;49638;47.526;10.028;2022-10-16T03:43:50;91798.72;;;12.04;96.12
63493;BME280;49638;47.526;10.028;2022-10-16T03:46:50;91779.81;;;11.95;96.44
63493;BME280;49638;47.526;10.028;2022-10-16T03:49:51;91797.31;;;11.96;96.79
63493;BME280;49638;47.526;10.028;2022-10-16T03:52:51;91788.22;;;11.87;96.61
63493;BME280;49638;47.526;10.028;2022-10-16T03:55:51;91807.84;;;11.91;96.74
63493;BME280;49638;47.526;10.028;2022-10-16T03:58:52;91796.22;;;11.92;96.80
63493;BME280;49638;47.526;10.028;2022-10-16T04:01:52;91796.72;;;11.89;96.67
63493;BME280;49638;47.526;10.028;2022-10-16T04:04:52;91794.91;;;11.95;96.46
63493;BME280;49638;47.526;10.028;2022-10-16T04:07:52;91786.72;;;11.96;95.98
63493;BME280;49638;47.526;10.028;2022-10-16T04:10:53;91790.41;;;11.95;96.41
63493;BME280;49638;47.526;10.028;2022-10-16T04:13:53;91792.53;;;11.93;96.74
63493;BME280;49638;47.526;10.028;2022-10-16T04:16:54;91786.72;;;11.96;96.22
63493;BME280;49638;47.526;10.028;2022-10-16T04:19:54;91801.25;;;11.94;96.94
63493;BME280;49638;47.526;10.028;2022-10-16T04:22:54;91799.41;;;11.94;96.82
63493;BME280;49638;47.526;10.028;2022-10-16T04:25:55;91798.63;;;11.94;96.63
63493;BME280;49638;47.526;10.028;2022-10-16T04:28:55;91797.03;;;11.93;96.43
63493;BME280;49638;47.526;10.028;2022-10-16T04:31:56;91784.56;;;11.93;96.71
63493;BME280;49638;47.526;10.028;2022-10-16T04:34:56;91786.72;;;11.96;96.38
63493;BME280;49638;47.526;10.028;2022-10-16T04:37:59;91793.91;;;12.01;95.98
63493;BME280;49638;47.526;10.028;2022-10-16T04:41:00;91799.22;;;12.01;96.54
63493;BME280;49638;47.526;10.028;2022-10-16T04:44:00;91814.88;;;12.02;96.43
63493;BME280;49638;47.526;10.028;2022-10-16T04:47:00;91818.06;;;12.04;96.71
63493;BME280;49638;47.526;10.028;2022-10-16T04:50:01;91808.22;;;12.00;96.62
63493;BME280;49638;47.526;10.028;2022-10-16T04:53:02;91824.72;;;12.07;96.33
63493;BME280;49638;47.526;10.028;2022-10-16T04:56:03;91823.06;;;12.01;96.30
63493;BME280;49638;47.526;10.028;2022-10-16T04:59:03;91827.28;;;12.02;96.32
63493;BME280;49638;47.526;10.028;2022-10-16T05:02:04;91824.41;;;12.03;96.63
63493;BME280;49638;47.526;10.028;2022-10-16T05:05:04;91837.41;;;12.05;96.57
63493;BME280;49638;47.526;10.028;2022-10-16T05:08:05;91839.56;;;12.08;96.15
63493;BME280;49638;47.526;10.028;2022-10-16T05:11:05;91841.13;;;12.09;95.91
63493;BME280;49638;47.526;10.028;2022-10-16T05:14:06;91843.00;;;12.08;96.07
63493;BME280;49638;47.526;10.028;2022-10-16T05:17:06;91859.66;;;12.04;96.22
63493;BME280;49638;47.526;10.028;2022-10-16T05:20:07;91850.59;;;12.00;96.17
63493;BME280;49638;47.526;10.028;2022-10-16T05:23:07;91845.97;;;11.90;96.25
63493;BME280;49638;47.526;10.028;2022-10-16T05:26:08;91860.09;;;11.96;96.33
63493;BME280;49638;47.526;10.028;2022-10-16T05:29:08;91848.38;;;11.92;96.23
63493;BME280;49638;47.526;10.028;2022-10-16T05:32:09;91845.97;;;11.90;96.10
63493;BME280;49638;47.526;10.028;2022-10-16T05:35:09;91849.50;;;11.96;96.16
63493;BME280;49638;47.526;10.028;2022-10-16T05:38:09;91837.72;;;11.87;95.92
63493;BME280;49638;47.526;10.028;2022-10-16T05:41:10;91847.88;;;11.95;95.74
63493;BME280;49638;47.526;10.028;2022-10-16T05:44:10;91853.19;;;11.95;95.58
63493;BME280;49638;47.526;10.028;2022-10-16T05:47:12;91863.28;;;11.98;95.53
63493;BME280;49638;47.526;10.028;2022-10-16T05:50:14;91865.63;;;11.94;95.72
63493;BME280;49638;47.526;10.028;2022-10-16T05:53:14;91865.94;;;11.98;95.63
63493;BME280;49638;47.526;10.028;2022-10-16T05:56:15;91876.81;;;12.01;95.55
63493;BME280;49638;47.526;10.028;2022-10-16T05:59:15;91879.16;;;11.98;95.64
63493;BME280;49638;47.526;10.028;2022-10-16T06:02:15;91885.34;;;12.03;96.03
63493;BME280;49638;47.526;10.028;2022-10-16T06:05:16;91886.19;;;12.09;95.35
63493;BME280;49638;47.526;10.028;2022-10-16T06:08:17;91888.91;;;12.14;95.29
63493;BME280;49638;47.526;10.028;2022-10-16T06:11:20;91887.81;;;12.10;95.49
63493;BME280;49638;47.526;10.028;2022-10-16T06:14:21;91887.63;;;12.17;95.42
63493;BME280;49638;47.526;10.028;2022-10-16T06:17:21;91887.66;;;12.22;95.18
63493;BME280;49638;47.526;10.028;2022-10-16T06:20:21;91878.03;;;12.16;95.72
63493;BME280;49638;47.526;10.028;2022-10-16T06:23:22;91891.09;;;12.22;95.70
63493;BME280;49638;47.526;10.028;2022-10-16T06:26:25;91882.63;;;12.20;95.92
63493;BME280;49638;47.526;10.028;2022-10-16T06:29:26;91897.53;;;12.26;95.31
63493;BME280;49638;47.526;10.028;2022-10-16T06:32:27;91906.00;;;12.28;95.69
63493;BME280;49638;47.526;10.028;2022-10-16T06:35:27;91896.69;;;12.26;95.70
63493;BME280;49638;47.526;10.028;2022-10-16T06:38:29;91896.50;;;12.32;95.12
63493;BME280;49638;47.526;10.028;2022-10-16T06:41:30;91917.81;;;12.43;95.66
63493;BME280;49638;47.526;10.028;2022-10-16T06:44:31;91906.41;;;12.42;95.32
63493;BME280;49638;47.526;10.028;2022-10-16T06:47:31;91917.13;;;12.52;94.96
63493;BME280;49638;47.526;10.028;2022-10-16T06:50:31;91911.59;;;12.54;94.48
63493;BME280;49638;47.526;10.028;2022-10-16T06:53:33;91920.16;;;12.61;94.21
63493;BME280;49638;47.526;10.028;2022-10-16T06:56:35;91922.91;;;12.71;93.81
63493;BME280;49638;47.526;10.028;2022-10-16T06:59:35;91931.94;;;12.75;94.07
63493;BME280;49638;47.526;10.028;2022-10-16T07:02:35;91940.19;;;12.79;94.01
63493;BME280;49638;47.526;10.028;2022-10-16T07:05:40;91943.44;;;12.86;94.02
63493;BME280;49638;47.526;10.028;2022-10-16T07:08:42;91935.25;;;12.88;93.89
63493;BME280;49638;47.526;10.028;2022-10-16T07:11:43;91948.13;;;13.01;94.44
63493;BME280;49638;47.526;10.028;2022-10-16T07:14:43;91943.31;;;12.98;94.20
63493;BME280;49638;47.526;10.028;2022-10-16T07:17:43;91950.00;;;13.06;94.28
63493;BME280;49638;47.526;10.028;2022-10-16T07:20:43;91954.31;;;13.12;93.98
63493;BME280;49638;47.526;10.028;2022-10-16T07:23:44;91955.19;;;13.22;93.73
63493;BME280;49638;47.526;10.028;2022-10-16T07:26:45;91951.97;;;13.20;93.17
63493;BME280;49638;47.526;10.028;2022-10-16T07:29:46;91959.53;;;13.29;93.07
63493;BME280;49638;47.526;10.028;2022-10-16T07:32:46;91967.28;;;13.35;92.70
63493;BME280;49638;47.526;10.028;2022-10-16T07:35:53;91975.56;;;13.44;92.49
63493;BME280;49638;47.526;10.028;2022-10-16T07:38:53;91969.19;;;13.45;92.47
63493;BME280;49638;47.526;10.028;2022-10-16T07:41:54;91973.78;;;13.55;92.19
63493;BME280;49638;47.526;10.028;2022-10-16T07:44:54;91956.53;;;13.52;91.95
63493;BME280;49638;47.526;10.028;2022-10-16T07:47:55;91972.53;;;13.62;91.76
63493;BME280;49638;47.526;10.028;2022-10-16T07:51:02;91966.72;;;13.70;90.89
63493;BME280;49638;47.526;10.028;2022-10-16T07:54:02;91972.38;;;13.79;91.20
63493;BME280;49638;47.526;10.028;2022-10-16T07:57:03;91981.16;;;13.85;91.32
63493;BME280;49638;47.526;10.028;2022-10-16T08:00:03;91986.81;;;13.99;90.66
63493;BME280;49638;47.526;10.028;2022-10-16T08:03:04;91983.94;;;14.05;90.41
63493;BME280;49638;47.526;10.028;2022-10-16T08:06:04;91997.06;;;14.22;90.07
63493;BME280;49638;47.526;10.028;2022-10-16T08:09:06;91997.34;;;14.26;89.84
63493;BME280;49638;47.526;10.028;2022-10-16T08:12:07;91989.66;;;14.29;89.36
63493;BME280;49638;47.526;10.028;2022-10-16T08:15:08;91997.16;;;14.42;89.55
63493;BME280;49638;47.526;10.028;2022-10-16T08:18:09;92008.34;;;14.50;89.51
63493;BME280;49638;47.526;10.028;2022-10-16T08:21:15;92008.44;;;14.60;88.96
63493;BME280;49638;47.526;10.028;2022-10-16T08:24:15;92005.53;;;14.61;89.33
63493;BME280;49638;47.526;10.028;2022-10-16T08:27:16;92007.16;;;14.73;88.98
63493;BME280;49638;47.526;10.028;2022-10-16T08:30:17;92022.63;;;14.86;88.71
63493;BME280;49638;47.526;10.028;2022-10-16T08:33:18;92026.91;;;14.97;88.21
63493;BME280;49638;47.526;10.028;2022-10-16T08:36:19;92029.84;;;15.01;87.80
63493;BME280;49638;47.526;10.028;2022-10-16T08:39:19;92027.47;;;15.04;87.61
63493;BME280;49638;47.526;10.028;2022-10-16T08:49:03;92016.31;;;15.02;88.10
63493;BME280;49638;47.526;10.028;2022-10-16T08:52:12;92021.66;;;15.12;88.07
63493;BME280;49638;47.526;10.028;2022-10-16T08:55:30;92024.31;;;15.18;88.30
63493;BME280;49638;47.526;10.028;2022-10-16T08:58:33;92030.19;;;15.25;88.65
63493;BME280;49638;47.526;10.028;2022-10-16T09:01:47;92046.19;;;15.30;87.98
63493;BME280;49638;47.526;10.028;2022-10-16T09:04:52;92047.00;;;15.41;88.67
63493;BME280;49638;47.526;10.028;2022-10-16T09:08:03;92049.41;;;15.47;88.20
63493;BME280;49638;47.526;10.028;2022-10-16T09:11:28;92045.94;;;15.47;86.71
63493;BME280;49638;47.526;10.028;2022-10-16T09:15:12;92048.34;;;15.48;86.05
63493;BME280;49638;47.526;10.028;2022-10-16T09:21:37;92045.13;;;15.41;87.96
63493;BME280;49638;47.526;10.028;2022-10-16T09:24:40;92044.88;;;15.43;88.83
63493;BME280;49638;47.526;10.028;2022-10-16T09:27:42;92051.03;;;15.53;88.79
63493;BME280;49638;47.526;10.028;2022-10-16T09:30:45;92054.22;;;15.60;88.93
63493;BME280;49638;47.526;10.028;2022-10-16T09:33:50;92047.56;;;15.53;88.60
63493;BME280;49638;47.526;10.028;2022-10-16T09:36:52;92060.59;;;15.65;89.14
63493;BME280;49638;47.526;10.028;2022-10-16T09:39:54;92063.84;;;15.72;88.77
63493;BME280;49638;47.526;10.028;2022-10-16T09:46:33;92073.72;;;15.71;88.46
63493;BME280;49638;47.526;10.028;2022-10-16T09:49:34;92063.06;;;15.76;88.48
63493;BME280;49638;47.526;10.028;2022-10-16T09:52:36;92071.06;;;15.87;88.18
63493;BME280;49638;47.526;10.028;2022-10-16T09:55:36;92065.72;;;15.92;88.17
63493;BME280;49638;47.526;10.028;2022-10-16T09:58:36;92069.19;;;15.92;88.26
63493;BME280;49638;47.526;10.028;2022-10-16T10:01:39;92066.50;;;15.92;88.02
63493;BME280;49638;47.526;10.028;2022-10-16T10:04:42;92072.13;;;15.96;86.33
63493;BME280;49638;47.526;10.028;2022-10-16T10:07:44;92070.25;;;16.06;86.69
63493;BME280;49638;47.526;10.028;2022-10-16T10:10:49;92058.78;;;16.11;86.88
63493;BME280;49638;47.526;10.028;2022-10-16T10:13:50;92076.63;;;16.16;86.53
63493;BME280;49638;47.526;10.028;2022-10-16T10:16:52;92070.50;;;16.15;84.59
63493;BME280;49638;47.526;10.028;2022-10-16T10:20:01;92074.53;;;16.18;82.98
63493;BME280;49638;47.526;10.028;2022-10-16T10:23:21;92078.22;;;16.17;78.13
63493;BME280;49638;47.526;10.028;2022-10-16T10:26:24;92070.78;;;16.19;80.55
63493;BME280;49638;47.526;10.028;2022-10-16T10:39:30;92073.16;;;16.36;77.93
63493;BME280;49638;47.526;10.028;2022-10-16T10:45:44;92070.50;;;16.36;75.82
63493;BME280;49638;47.526;10.028;2022-10-16T10:48:57;92073.44;;;16.34;72.57
63493;BME280;49638;47.526;10.028;2022-10-16T10:56:13;92075.81;;;16.36;66.93
63493;BME280;49638;47.526;10.028;2022-10-16T11:02:37;92072.31;;;16.50;73.55
63493;BME280;49638;47.526;10.028;2022-10-16T11:05:45;92062.44;;;16.56;69.45
63493;BME280;49638;47.526;10.028;2022-10-16T11:09:00;92067.53;;;16.58;69.17
63493;BME280;49638;47.526;10.028;2022-10-16T11:12:11;92060.81;;;16.60;68.22
63493;BME280;49638;47.526;10.028;2022-10-16T11:15:21;92073.34;;;16.70;69.28
63493;BME280;49638;47.526;10.028;2022-10-16T11:21:24;92068.03;;;16.65;71.83
63493;BME280;49638;47.526;10.028;2022-10-16T11:24:36;92049.91;;;16.62;66.15
63493;BME280;49638;47.526;10.028;2022-10-16T11:28:00;92063.22;;;16.77;64.38
63493;BME280;49638;47.526;10.028;2022-10-16T11:31:11;92064.00;;;16.83;66.17
63493;BME280;49638;47.526;10.028;2022-10-16T11:37:27;92037.81;;;16.90;68.66
63493;BME280;49638;47.526;10.028;2022-10-16T11:40:32;92053.78;;;17.00;69.24
63493;BME280;49638;47.526;10.028;2022-10-16T11:43:38;92051.13;;;17.00;67.76
63493;BME280;49638;47.526;10.028;2022-10-16T11:46:46;92052.19;;;16.99;67.63
63493;BME280;49638;47.526;10.028;2022-10-16T11:49:52;92045.19;;;17.08;65.93
63493;BME280;49638;47.526;10.028;2022-10-16T11:56:36;92042.22;;;17.15;65.40
63493;BME280;49638;47.526;10.028;2022-10-16T11:59:52;92048.13;;;17.12;63.24
63493;BME280;49638;47.526;10.028;2022-10-16T12:03:09;92041.72;;;17.13;62.57
63493;BME280;49638;47.526;10.028;2022-10-16T12:06:28;92042.22;;;17.20;63.14
63493;BME280;49638;47.526;10.028;2022-10-16T12:09:34;92037.44;;;17.17;66.48
63493;BME280;49638;47.526;10.028;2022-10-16T12:12:38;92024.09;;;17.12;67.01
63493;BME280;49638;47.526;10.028;2022-10-16T12:15:39;92025.66;;;17.18;66.83
63493;BME280;49638;47.526;10.028;2022-10-16T12:18:41;92018.44;;;17.23;66.37
63493;BME280;49638;47.526;10.028;2022-10-16T12:21:43;92029.66;;;17.20;66.24
63493;BME280;49638;47.526;10.028;2022-10-16T12:24:44;92021.41;;;17.17;66.22
63493;BME280;49638;47.526;10.028;2022-10-16T12:27:44;92007.03;;;17.08;65.94
63493;BME280;49638;47.526;10.028;2022-10-16T12:30:59;92026.75;;;17.17;62.87
63493;BME280;49638;47.526;10.028;2022-10-16T12:34:02;92029.13;;;17.18;66.32
63493;BME280;49638;47.526;10.028;2022-10-16T12:37:21;92030.50;;;17.16;63.58
63493;BME280;49638;47.526;10.028;2022-10-16T12:40:31;92032.38;;;17.15;64.58
63493;BME280;49638;47.526;10.028;2022-10-16T12:46:39;92022.47;;;17.16;65.83
63493;BME280;49638;47.526;10.028;2022-10-16T12:49:49;92018.72;;;17.17;63.30
63493;BME280;49638;47.526;10.028;2022-10-16T12:52:49;92015.81;;;17.13;65.85
63493;BME280;49638;47.526;10.028;2022-10-16T12:56:03;92008.59;;;17.19;63.83
63493;BME280;49638;47.526;10.028;2022-10-16T13:02:59;92010.63;;;17.32;61.67
63493;BME280;49638;47.526;10.028;2022-10-16T13:09:58;92007.63;;;17.39;60.93
63493;BME280;49638;47.526;10.028;2022-10-16T13:16:49;92011.38;;;17.43;59.69
63493;BME280;49638;47.526;10.028;2022-10-16T13:23:16;92010.31;;;17.39;60.98
63493;BME280;49638;47.526;10.028;2022-10-16T13:26:49;92013.22;;;17.42;62.01
63493;BME280;49638;47.526;10.028;2022-10-16T13:30:07;92018.00;;;17.45;64.63
63493;BME280;49638;47.526;10.028;2022-10-16T13:33:21;92010.53;;;17.47;61.88
63493;BME280;49638;47.526;10.028;2022-10-16T13:36:35;92003.03;;;17.49;63.45
63493;BME280;49638;47.526;10.028;2022-10-16T13:39:35;92014.78;;;17.48;65.04
63493;BME280;49638;47.526;10.028;2022-10-16T13:42:36;92005.22;;;17.42;64.74
63493;BME280;49638;47.526;10.028;2022-10-16T13:45:36;91998.56;;;17.40;64.94
63493;BME280;49638;47.526;10.028;2022-10-16T13:48:37;92009.97;;;17.50;66.14
63493;BME280;49638;47.526;10.028;2022-10-16T13:51:37;92007.88;;;17.47;67.04
63493;BME280;49638;47.526;10.028;2022-10-16T13:54:37;92005.72;;;17.49;67.11
63493;BME280;49638;47.526;10.028;2022-10-16T13:57:38;92005.75;;;17.44;67.16
63493;BME280;49638;47.526;10.028;2022-10-16T14:00:38;92020.69;;;17.45;67.51
63493;BME280;49638;47.526;10.028;2022-10-16T14:03:40;92019.09;;;17.44;67.84
63493;BME280;49638;47.526;10.028;2022-10-16T14:06:45;92018.00;;;17.45;67.83
63493;BME280;49638;47.526;10.028;2022-10-16T14:09:48;92026.56;;;17.47;67.21
63493;BME280;49638;47.526;10.028;2022-10-16T14:13:04;92026.84;;;17.46;66.56
63493;BME280;49638;47.526;10.028;2022-10-16T14:16:08;92012.19;;;17.38;67.35
63493;BME280;49638;47.526;10.028;2022-10-16T14:19:28;92023.59;;;17.49;63.19
63493;BME280;49638;47.526;10.028;2022-10-16T14:22:37;92021.50;;;17.46;65.58
63493;BME280;49638;47.526;10.028;2022-10-16T14:25:38;92018.00;;;17.45;67.45
63493;BME280;49638;47.526;10.028;2022-10-16T14:28:40;92016.44;;;17.44;67.87
63493;BME280;49638;47.526;10.028;2022-10-16T14:31:41;92014.59;;;17.40;68.16
63493;BME280;49638;47.526;10.028;2022-10-16T14:34:42;92013.22;;;17.42;68.51
63493;BME280;49638;47.526;10.028;2022-10-16T14:37:56;92026.06;;;17.40;68.80
63493;BME280;49638;47.526;10.028;2022-10-16T14:40:59;92023.41;;;17.40;69.35
63493;BME280;49638;47.526;10.028;2022-10-16T14:44:04;92020.50;;;17.37;68.64
63493;BME280;49638;47.526;10.028;2022-10-16T14:47:10;92022.94;;;17.28;69.43
63493;BME280;49638;47.526;10.028;2022-10-16T14:50:13;92031.25;;;17.26;70.35
63493;BME280;49638;47.526;10.028;2022-10-16T14:53:13;92019.28;;;17.19;70.48
63493;BME280;49638;47.526;10.028;2022-10-16T14:56:20;92019.28;;;17.14;70.81
63493;BME280;49638;47.526;10.028;2022-10-16T14:59:30;92030.50;;;17.16;69.64
63493;BME280;49638;47.526;10.028;2022-10-16T15:02:33;92032.63;;;17.14;70.83
63493;BME280;49638;47.526;10.028;2022-10-16T15:05:35;92021.44;;;17.07;70.47
63493;BME280;49638;47.526;10.028;2022-10-16T15:08:35;92034.81;;;17.07;70.72
63493;BME280;49638;47.526;10.028;2022-10-16T15:11:35;92032.16;;;17.01;70.52
63493;BME280;49638;47.526;10.028;2022-10-16T15:14:36;92036.69;;;17.01;70.32
63493;BME280;49638;47.526;10.028;2022-10-16T15:17:37;92030.34;;;16.92;70.03
63493;BME280;49638;47.526;10.028;2022-10-16T15:20:38;92030.63;;;16.85;69.91
63493;BME280;49638;47.526;10.028;2022-10-16T15:23:38;92030.38;;;16.82;70.22
63493;BME280;49638;47.526;10.028;2022-10-16T15:26:39;92044.25;;;16.84;69.94
63493;BME280;49638;47.526;10.028;2022-10-16T15:29:40;92028.22;;;16.73;69.83
63493;BME280;49638;47.526;10.028;2022-10-16T15:32:40;92026.91;;;16.71;69.64
63493;BME280;49638;47.526;10.028;2022-10-16T15:35:40;92039.69;;;16.74;69.62
63493;BME280;49638;47.526;10.028;2022-10-16T15:38:41;92028.00;;;16.65;69.54
63493;BME280;49638;47.526;10.028;2022-10-16T15:41:42;92039.44;;;16.70;69.14
63493;BME280;49638;47.526;10.028;2022-10-16T15:44:42;92034.41;;;16.64;69.18
63493;BME280;49638;47.526;10.028;2022-10-16T15:47:43;92034.16;;;16.60;69.16
63493;BME280;49638;47.526;10.028;2022-10-16T15:50:43;92028.31;;;16.58;69.15
63493;BME280;49638;47.526;10.028;2022-10-16T15:53:44;92035.50;;;16.58;69.06
63493;BME280;49638;47.526;10.028;2022-10-16T15:56:46;92043.22;;;16.59;69.23
63493;BME280;49638;47.526;10.028;2022-10-16T15:59:46;92039.78;;;16.48;69.07
63493;BME280;49638;47.526;10.028;2022-10-16T16:02:53;92039.78;;;16.43;68.71
63493;BME280;49638;47.526;10.028;2022-10-16T16:05:54;92053.66;;;16.45;69.13
63493;BME280;49638;47.526;10.028;2022-10-16T16:08:55;92049.94;;;16.46;69.19
63493;BME280;49638;47.526;10.028;2022-10-16T16:11:55;92047.81;;;16.38;69.31
63493;BME280;49638;47.526;10.028;2022-10-16T16:14:55;92049.69;;;16.32;69.83
63493;BME280;49638;47.526;10.028;2022-10-16T16:17:55;92052.38;;;16.27;69.81
63493;BME280;49638;47.526;10.028;2022-10-16T16:20:56;92034.25;;;16.09;69.96
63493;BME280;49638;47.526;10.028;2022-10-16T16:23:56;92040.91;;;16.06;70.35
63493;BME280;49638;47.526;10.028;2022-10-16T16:26:57;92052.38;;;16.02;70.35
63493;BME280;49638;47.526;10.028;2022-10-16T16:29:57;92050.53;;;15.97;70.33
63493;BME280;49638;47.526;10.028;2022-10-16T16:32:57;92046.53;;;15.95;70.65
63493;BME280;49638;47.526;10.028;2022-10-16T16:35:59;92062.53;;;15.95;70.43
63493;BME280;49638;47.526;10.028;2022-10-16T16:39:00;92082.25;;;15.94;70.54
63493;BME280;49638;47.526;10.028;2022-10-16T16:42:01;92055.84;;;15.82;69.98
63493;BME280;49638;47.526;10.028;2022-10-16T16:45:04;92071.84;;;15.87;69.92
63493;BME280;49638;47.526;10.028;2022-10-16T16:48:05;92071.03;;;15.81;69.91
63493;BME280;49638;47.526;10.028;2022-10-16T16:51:12;92077.44;;;15.85;68.69
63493;BME280;49638;47.526;10.028;2022-10-16T16:54:15;92082.78;;;15.85;69.48
63493;BME280;49638;47.526;10.028;2022-10-16T16:57:15;92080.91;;;15.81;69.50
63493;BME280;49638;47.526;10.028;2022-10-16T17:00:16;92089.72;;;15.87;69.17
63493;BME280;49638;47.526;10.028;2022-10-16T17:03:16;92083.56;;;15.81;69.24
63493;BME280;49638;47.526;10.028;2022-10-16T17:06:19;92094.50;;;15.84;69.24
63493;BME280;49638;47.526;10.028;2022-10-16T17:09:19;92110.50;;;15.84;69.33
63493;BME280;49638;47.526;10.028;2022-10-16T17:12:20;92107.00;;;15.79;69.25